createdAt,value
2018-05-27T00:02:05.242Z,99970.16
2018-05-27T00:04:32.718Z,99966.66
2018-05-27T00:07:00.212Z,99968.80
2018-05-27T00:09:27.678Z,99971.72
2018-05-27T00:11:55.137Z,99968.80
2018-05-27T00:14:22.607Z,99964.09
2018-05-27T00:16:50.081Z,99968.97
2018-05-27T00:19:17.572Z,99964.89
2018-05-27T00:21:45.069Z,99957.55
2018-05-27T00:24:12.661Z,99952.44
2018-05-27T00:26:40.160Z,99957.31
2018-05-27T00:29:07.662Z,99955.62
2018-05-27T00:31:35.179Z,99957.55
2018-05-27T00:34:02.658Z,99963.41
2018-05-27T00:36:30.146Z,99960.26
2018-05-27T00:38:57.601Z,99961.27
2018-05-27T00:41:25.054Z,99951.50
2018-05-27T00:43:52.523Z,99959.08
2018-05-27T00:46:19.982Z,99959.67
2018-05-27T00:48:47.482Z,99961.10
2018-05-27T00:51:14.945Z,99952.94
2018-05-27T00:53:54.283Z,99948.80
2018-05-27T00:56:21.743Z,99951.16
2018-05-27T00:58:49.198Z,99951.31
2018-05-27T01:01:16.681Z,99948.75
2018-05-27T01:03:44.221Z,99944.05
2018-05-27T01:06:11.754Z,99935.86
2018-05-27T01:08:39.262Z,99935.88
2018-05-27T01:11:06.753Z,99931.55
2018-05-27T01:13:34.222Z,99934.70
2018-05-27T01:16:01.716Z,99930.58
2018-05-27T01:18:29.185Z,99922.08
2018-05-27T01:20:56.643Z,99920.27
2018-05-27T01:23:24.133Z,99920.71
2018-05-27T01:25:51.591Z,99921.89
2018-05-27T01:28:19.038Z,99921.67
2018-05-27T01:30:46.514Z,99919.05
2018-05-27T01:33:13.958Z,99917.00
2018-05-27T01:35:41.435Z,99912.05
2018-05-27T01:38:08.897Z,99914.69
2018-05-27T01:40:36.354Z,99910.41
2018-05-27T01:43:03.838Z,99913.38
2018-05-27T01:45:31.297Z,99915.73
2018-05-27T01:47:58.758Z,99925.03
2018-05-27T01:50:26.310Z,99920.05
2018-05-27T01:52:53.820Z,99922.11
2018-05-27T01:55:21.296Z,99919.09
2018-05-27T01:57:48.761Z,99928.43
2018-05-27T02:00:16.246Z,99924.22
2018-05-27T02:02:43.694Z,99918.28
2018-05-27T02:05:11.178Z,99910.77
2018-05-27T02:07:38.655Z,99922.09
2018-05-27T02:10:06.118Z,99923.89
2018-05-27T02:25:28.814Z,99924.60
2018-05-27T02:27:56.265Z,99920.78
2018-05-27T02:30:23.731Z,99921.73
2018-05-27T02:32:51.197Z,99914.41
2018-05-27T02:35:18.705Z,99911.71
2018-05-27T02:37:46.167Z,99918.67
2018-05-27T02:40:13.647Z,99919.25
2018-05-27T02:42:41.091Z,99916.88
2018-05-27T02:45:08.546Z,99913.53
2018-05-27T02:47:36.037Z,99912.34
2018-05-27T02:50:03.518Z,99909.50
2018-05-27T02:52:30.973Z,99914.75
2018-05-27T02:54:58.471Z,99913.06
2018-05-27T02:57:25.941Z,99916.59
2018-05-27T02:59:53.409Z,99915.72
2018-05-27T03:02:20.907Z,99911.47
2018-05-27T03:04:48.379Z,99904.11
2018-05-27T03:07:15.848Z,99907.55
2018-05-27T03:09:43.341Z,99912.16
2018-05-27T03:12:10.810Z,99907.25
2018-05-27T03:14:38.274Z,99904.58
2018-05-27T03:17:05.753Z,99904.56
2018-05-27T03:19:33.229Z,99911.00
2018-05-27T03:22:00.689Z,99904.05
2018-05-27T03:24:28.179Z,99912.45
2018-05-27T03:26:55.649Z,99909.00
2018-05-27T03:29:23.160Z,99908.03
2018-05-27T03:31:50.666Z,99906.34
2018-05-27T03:34:18.159Z,99908.41
2018-05-27T03:36:45.617Z,99900.40
2018-05-27T03:39:13.098Z,99897.30
2018-05-27T03:44:13.339Z,99903.78
2018-05-27T03:46:40.805Z,99905.67
2018-05-27T03:49:08.267Z,99900.84
2018-05-27T03:51:35.734Z,99902.92
2018-05-27T03:54:03.209Z,99910.86
2018-05-27T03:56:30.692Z,99906.66
2018-05-27T03:58:58.171Z,99908.56
2018-05-27T04:01:25.626Z,99913.18
2018-05-27T04:07:08.189Z,99910.63
2018-05-27T04:09:35.667Z,99915.64
2018-05-27T04:12:03.126Z,99919.30
2018-05-27T04:14:30.585Z,99925.67
2018-05-27T04:16:58.095Z,99920.80
2018-05-27T04:19:25.550Z,99909.51
2018-05-27T04:21:53.674Z,99909.37
2018-05-27T04:24:21.207Z,99908.38
2018-05-27T04:26:48.682Z,99910.96
2018-05-27T04:29:16.150Z,99904.94
2018-05-27T04:31:43.628Z,99910.98
2018-05-27T04:34:11.084Z,99906.18
2018-05-27T04:36:38.565Z,99907.66
2018-05-27T04:39:06.081Z,99912.66
2018-05-27T04:41:33.533Z,99910.44
2018-05-27T04:44:01.041Z,99912.82
2018-05-27T04:46:28.550Z,99911.58
2018-05-27T04:48:56.010Z,99912.77
2018-05-27T04:51:23.469Z,99916.24
2018-05-27T04:53:50.947Z,99915.72
2018-05-27T04:56:18.486Z,99914.12
2018-05-27T04:58:45.948Z,99911.52
2018-05-27T05:01:13.427Z,99921.81
2018-05-27T05:03:40.934Z,99922.31
2018-05-27T05:06:08.393Z,99922.45
2018-05-27T05:08:35.879Z,99919.98
2018-05-27T05:11:03.359Z,99916.81
2018-05-27T05:13:30.826Z,99920.94
2018-05-27T05:15:58.797Z,99916.35
2018-05-27T05:18:26.273Z,99918.98
2018-05-27T05:20:53.734Z,99913.78
2018-05-27T05:23:21.239Z,99920.11
2018-05-27T05:25:48.696Z,99917.59
2018-05-27T05:28:16.152Z,99919.38
2018-05-27T05:30:43.627Z,99921.22
2018-05-27T05:33:11.089Z,99922.27
2018-05-27T05:35:38.562Z,99922.44
2018-05-27T05:38:06.055Z,99922.09
2018-05-27T05:40:33.528Z,99922.78
2018-05-27T05:43:00.990Z,99919.92
2018-05-27T05:45:28.466Z,99923.77
2018-05-27T05:47:55.923Z,99927.64
2018-05-27T05:50:23.389Z,99926.69
2018-05-27T05:52:50.859Z,99933.09
2018-05-27T05:55:18.314Z,99936.44
2018-05-27T05:57:45.774Z,99933.04
2018-05-27T06:00:13.243Z,99933.78
2018-05-27T06:02:40.729Z,99940.19
2018-05-27T06:05:08.193Z,99941.77
2018-05-27T06:07:35.704Z,99948.74
2018-05-27T06:10:03.162Z,99945.45
2018-05-27T06:12:30.621Z,99948.14
2018-05-27T06:14:58.114Z,99947.64
2018-05-27T06:17:25.584Z,99952.52
2018-05-27T06:19:53.055Z,99947.95
2018-05-27T06:22:20.537Z,99949.17
2018-05-27T06:24:48.041Z,99951.45
2018-05-27T06:27:15.538Z,99957.04
2018-05-27T06:29:43.011Z,99955.70
2018-05-27T06:32:10.483Z,99956.30
2018-05-27T06:34:37.951Z,99953.00
2018-05-27T06:37:05.414Z,99951.13
2018-05-27T06:39:32.891Z,99954.14
2018-05-27T06:42:00.390Z,99951.14
2018-05-27T06:44:27.860Z,99952.53
2018-05-27T06:46:55.331Z,99944.16
2018-05-27T06:49:22.805Z,99947.45
2018-05-27T06:51:50.310Z,99948.34
2018-05-27T06:54:17.766Z,99949.72
2018-05-27T06:56:45.221Z,99951.70
2018-05-27T06:59:12.705Z,99959.03
2018-05-27T07:01:40.169Z,99957.02
2018-05-27T07:04:07.687Z,99963.70
2018-05-27T07:06:35.160Z,99962.09
2018-05-27T07:09:02.655Z,99954.92
2018-05-27T07:11:30.112Z,99954.83
2018-05-27T07:13:57.683Z,99952.25
2018-05-27T07:16:25.150Z,99957.20
2018-05-27T07:18:52.618Z,99946.58
2018-05-27T07:21:20.097Z,99950.72
2018-05-27T07:23:47.551Z,99948.23
2018-05-27T07:26:15.027Z,99946.50
2018-05-27T07:28:42.514Z,99946.09
2018-05-27T07:31:09.966Z,99953.57
2018-05-27T07:33:37.413Z,99958.18
2018-05-27T07:36:04.902Z,99963.09
2018-05-27T07:38:32.359Z,99961.31
2018-05-27T07:40:59.937Z,99960.25
2018-05-27T07:43:27.447Z,99962.31
2018-05-27T07:45:54.901Z,99961.55
2018-05-27T07:48:22.366Z,99962.04
2018-05-27T07:50:49.846Z,99960.72
2018-05-27T07:53:17.304Z,99964.09
2018-05-27T07:55:44.810Z,99973.72
2018-05-27T07:58:12.318Z,99962.23
2018-05-27T08:00:39.754Z,99974.91
2018-05-27T08:03:07.222Z,99975.59
2018-05-27T08:05:34.666Z,99973.77
2018-05-27T08:08:02.240Z,99981.39
2018-05-27T08:10:29.748Z,99970.33
2018-05-27T08:12:57.209Z,99975.06
2018-05-27T08:15:24.727Z,99978.87
2018-05-27T08:17:52.193Z,99987.42
2018-05-27T08:20:19.651Z,99988.98
2018-05-27T08:22:47.109Z,99989.48
2018-05-27T08:25:29.674Z,99989.66
2018-05-27T08:27:57.130Z,99982.29
2018-05-27T08:30:24.599Z,99984.27
2018-05-27T08:32:52.096Z,99991.63
2018-05-27T08:35:19.558Z,99996.47
2018-05-27T08:37:47.687Z,99997.88
2018-05-27T08:40:15.155Z,99982.78
2018-05-27T08:42:42.632Z,99984.92
2018-05-27T08:45:10.099Z,99985.39
2018-05-27T08:47:37.599Z,99981.94
2018-05-27T08:50:05.103Z,99980.37
2018-05-27T08:52:32.587Z,99976.43
2018-05-27T08:55:00.082Z,99973.72
2018-05-27T08:57:27.543Z,99974.90
2018-05-27T08:59:55.051Z,99973.82
2018-05-27T09:02:22.514Z,99973.77
2018-05-27T09:04:49.971Z,99975.45
2018-05-27T09:07:17.450Z,99974.61
2018-05-27T09:09:44.926Z,99972.41
2018-05-27T09:12:12.440Z,99973.53
2018-05-27T09:14:39.853Z,99970.72
2018-05-27T09:17:07.386Z,99975.66
2018-05-27T09:19:34.891Z,99976.63
2018-05-27T09:22:02.434Z,99967.21
2018-05-27T09:24:29.907Z,99973.72
2018-05-27T09:26:57.397Z,99974.43
2018-05-27T09:29:24.873Z,99979.56
2018-05-27T09:31:52.322Z,99976.08
2018-05-27T09:34:19.782Z,99978.61
2018-05-27T09:36:47.264Z,99965.77
2018-05-27T09:39:14.785Z,99972.45
2018-05-27T09:41:42.202Z,99972.70
2018-05-27T09:44:09.666Z,99975.86
2018-05-27T09:46:37.130Z,99972.59
2018-05-27T09:49:04.582Z,99964.48
2018-05-27T09:51:32.065Z,99965.83
2018-05-27T09:53:59.542Z,99962.32
2018-05-27T09:56:27.012Z,99966.14
2018-05-27T09:58:54.499Z,99959.22
2018-05-27T10:01:21.957Z,99953.08
2018-05-27T10:03:49.411Z,99963.83
2018-05-27T10:06:16.866Z,99954.69
2018-05-27T10:08:44.360Z,99953.77
2018-05-27T10:11:11.860Z,99950.42
2018-05-27T10:13:39.323Z,99949.23
2018-05-27T10:16:06.841Z,99951.02
2018-05-27T10:18:34.321Z,99948.96
2018-05-27T10:21:01.788Z,99955.61
2018-05-27T10:23:29.278Z,99941.79
2018-05-27T10:25:56.837Z,99945.58
2018-05-27T10:28:24.218Z,99945.05
2018-05-27T10:30:51.696Z,99949.88
2018-05-27T10:33:19.158Z,99950.27
2018-05-27T10:35:46.634Z,99948.47
2018-05-27T10:38:14.108Z,99938.48
2018-05-27T10:40:41.573Z,99938.72
2018-05-27T10:43:09.014Z,99940.75
2018-05-27T10:45:36.502Z,99934.09
2018-05-27T10:48:03.989Z,99936.45
2018-05-27T10:50:31.449Z,99933.35
2018-05-27T10:52:58.950Z,99922.80
2018-05-27T10:55:26.412Z,99922.36
2018-05-27T10:57:53.860Z,99920.70
2018-05-27T11:00:21.342Z,99921.12
2018-05-27T11:02:48.806Z,99917.52
2018-05-27T11:05:16.279Z,99910.74
2018-05-27T11:07:43.770Z,99912.57
2018-05-27T11:10:11.231Z,99900.48
2018-05-27T11:12:38.712Z,99908.96
2018-05-27T11:15:06.246Z,99898.59
2018-05-27T11:17:33.699Z,99894.73
2018-05-27T11:20:01.208Z,99891.05
2018-05-27T11:22:28.686Z,99886.63
2018-05-27T11:24:56.153Z,99889.86
2018-05-27T11:27:23.631Z,99885.55
2018-05-27T11:29:51.144Z,99879.01
2018-05-27T11:32:18.557Z,99876.72
2018-05-27T11:34:46.041Z,99871.26
2018-05-27T11:37:13.501Z,99867.02
2018-05-27T11:39:40.952Z,99857.91
2018-05-27T11:42:08.411Z,99861.86
2018-05-27T11:44:35.874Z,99856.64
2018-05-27T11:47:03.338Z,99856.02
2018-05-27T11:49:30.838Z,99852.98
2018-05-27T11:51:58.283Z,99842.22
2018-05-27T11:54:25.744Z,99845.86
2018-05-27T11:56:53.222Z,99841.64
2018-05-27T11:59:20.681Z,99839.83
2018-05-27T12:01:48.240Z,99834.41
2018-05-27T12:04:15.669Z,99828.61
2018-05-27T12:06:43.133Z,99823.48
2018-05-27T12:09:10.799Z,99826.97
2018-05-27T12:11:38.258Z,99822.94
2018-05-27T12:14:05.758Z,99822.86
2018-05-27T12:16:33.227Z,99822.86
2018-05-27T12:19:00.702Z,99819.99
2018-05-27T12:21:28.160Z,99817.61
2018-05-27T12:23:55.642Z,99823.04
2018-05-27T12:26:23.122Z,99815.89
2018-05-27T12:28:50.594Z,99809.38
2018-05-27T12:31:18.046Z,99814.45
2018-05-27T12:33:45.535Z,99816.42
2018-05-27T12:36:12.978Z,99806.23
2018-05-27T12:38:40.459Z,99808.14
2018-05-27T12:41:07.986Z,99796.05
2018-05-27T12:43:35.446Z,99796.11
2018-05-27T12:46:02.906Z,99792.02
2018-05-27T12:48:30.937Z,99796.04
2018-05-27T12:50:58.411Z,99792.63
2018-05-27T12:53:25.939Z,99787.58
2018-05-27T12:55:53.427Z,99790.87
2018-05-27T12:58:20.867Z,99793.96
2018-05-27T13:00:48.305Z,99792.29
2018-05-27T13:03:15.799Z,99791.59
2018-05-27T13:05:43.330Z,99799.97
2018-05-27T13:08:10.791Z,99791.08
2018-05-27T13:10:38.275Z,99794.44
2018-05-27T13:13:09.650Z,99792.63
2018-05-27T13:15:37.189Z,99788.50
2018-05-27T13:18:04.665Z,99783.67
2018-05-27T13:20:32.123Z,99782.94
2018-05-27T13:22:59.597Z,99787.03
2018-05-27T13:25:27.074Z,99780.43
2018-05-27T13:27:54.650Z,99784.67
2018-05-27T13:30:22.328Z,99786.39
2018-05-27T13:32:49.903Z,99791.87
2018-05-27T13:35:17.349Z,99793.78
2018-05-27T13:37:44.894Z,99798.92
2018-05-27T13:40:12.357Z,99800.59
2018-05-27T13:42:39.841Z,99792.03
2018-05-27T13:45:07.306Z,99792.34
2018-05-27T13:47:34.789Z,99794.49
2018-05-27T13:50:02.330Z,99794.91
2018-05-27T13:52:29.819Z,99792.86
2018-05-27T13:54:57.271Z,99793.47
2018-05-27T13:57:24.717Z,99794.30
2018-05-27T13:59:52.203Z,99792.42
2018-05-27T14:02:19.658Z,99795.20
2018-05-27T14:04:47.159Z,99796.84
2018-05-27T14:07:14.634Z,99792.43
2018-05-27T14:09:42.084Z,99786.67
2018-05-27T14:12:09.541Z,99784.83
2018-05-27T14:14:37.069Z,99779.36
2018-05-27T14:17:04.545Z,99776.23
2018-05-27T14:19:32.018Z,99773.63
2018-05-27T14:21:59.501Z,99767.67
2018-05-27T14:24:26.991Z,99762.02
2018-05-27T14:26:54.460Z,99760.34
2018-05-27T14:29:21.940Z,99759.09
2018-05-27T14:31:49.403Z,99757.47
2018-05-27T14:34:16.866Z,99764.11
2018-05-27T14:36:44.411Z,99774.44
2018-05-27T14:39:12.057Z,99776.72
2018-05-27T14:41:40.365Z,99775.95
2018-05-27T14:44:07.893Z,99769.14
2018-05-27T14:46:35.422Z,99771.92
2018-05-27T14:49:02.920Z,99767.83
2018-05-27T14:51:30.401Z,99764.80
2018-05-27T14:53:58.587Z,99760.77
2018-05-27T14:56:26.403Z,99761.57
2018-05-27T14:58:53.880Z,99760.98
2018-05-27T15:01:21.362Z,99766.48
2018-05-27T15:03:48.890Z,99764.45
2018-05-27T15:06:16.391Z,99758.11
2018-05-27T15:08:43.897Z,99752.11
2018-05-27T15:11:11.930Z,99758.86
2018-05-27T15:13:39.534Z,99753.60
2018-05-27T15:16:06.999Z,99751.26
2018-05-27T15:18:34.516Z,99747.91
2018-05-27T15:21:02.033Z,99746.97
2018-05-27T15:23:29.531Z,99741.39
2018-05-27T15:25:56.982Z,99733.16
2018-05-27T15:28:24.522Z,99732.52
2018-05-27T15:30:51.975Z,99723.30
2018-05-27T15:33:20.067Z,99724.06
2018-05-27T15:35:47.612Z,99726.66
2018-05-27T15:38:15.057Z,99720.47
2018-05-27T15:40:42.591Z,99729.83
2018-05-27T15:43:10.066Z,99723.81
2018-05-27T15:45:37.533Z,99728.83
2018-05-27T15:48:04.986Z,99724.31
2018-05-27T15:50:32.458Z,99719.10
2018-05-27T15:52:59.933Z,99715.75
2018-05-27T15:55:27.401Z,99713.13
2018-05-27T15:57:54.892Z,99713.87
2018-05-27T16:00:22.378Z,99718.69
2018-05-27T16:02:49.877Z,99721.11
2018-05-27T16:05:17.387Z,99718.42
2018-05-27T16:07:44.860Z,99713.14
2018-05-27T16:10:12.319Z,99717.34
2018-05-27T16:12:39.769Z,99720.13
2018-05-27T16:15:07.225Z,99723.14
2018-05-27T16:17:34.701Z,99723.09
2018-05-27T16:20:02.270Z,99723.30
2018-05-27T16:22:29.740Z,99721.77
2018-05-27T16:24:57.263Z,99723.30
2018-05-27T16:27:24.750Z,99721.29
2018-05-27T16:29:52.225Z,99721.13
2018-05-27T16:32:19.675Z,99724.17
2018-05-27T16:34:47.137Z,99726.13
2018-05-27T16:37:14.582Z,99728.84
2018-05-27T16:39:42.864Z,99724.03
2018-05-27T16:42:10.417Z,99730.25
2018-05-27T16:44:38.118Z,99738.16
2018-05-27T16:47:05.632Z,99745.33
2018-05-27T16:49:33.406Z,99743.27
2018-05-27T16:52:00.971Z,99744.42
2018-05-27T16:54:28.445Z,99738.73
2018-05-27T16:56:55.923Z,99747.38
2018-05-27T16:59:23.387Z,99747.27
2018-05-27T17:01:50.846Z,99748.25
2018-05-27T17:04:18.357Z,99750.99
2018-05-27T17:06:45.856Z,99750.61
2018-05-27T17:09:13.315Z,99756.80
2018-05-27T17:11:40.810Z,99757.30
2018-05-27T17:14:08.312Z,99761.59
2018-05-27T17:16:35.751Z,99757.13
2018-05-27T17:19:03.223Z,99762.80
2018-05-27T17:21:30.746Z,99760.30
2018-05-27T17:23:58.201Z,99767.15
2018-05-27T17:26:25.674Z,99759.97
2018-05-27T17:28:53.148Z,99761.52
2018-05-27T17:31:20.690Z,99758.50
2018-05-27T17:33:48.241Z,99761.91
2018-05-27T17:36:16.355Z,99755.27
2018-05-27T17:38:45.830Z,99754.22
2018-05-27T17:41:13.345Z,99757.37
2018-05-27T17:43:40.839Z,99759.30
2018-05-27T17:46:08.313Z,99761.08
2018-05-27T17:48:35.793Z,99770.04
2018-05-27T17:51:03.294Z,99760.57
2018-05-27T17:53:30.765Z,99770.16
2018-05-27T17:55:58.257Z,99773.64
2018-05-27T17:58:25.774Z,99775.34
2018-05-27T18:00:53.477Z,99781.86
2018-05-27T18:03:21.006Z,99782.03
2018-05-27T18:05:48.504Z,99779.61
2018-05-27T18:08:16.008Z,99777.70
2018-05-27T18:10:43.520Z,99782.84
2018-05-27T18:13:11.091Z,99780.21
2018-05-27T18:15:38.615Z,99779.34
2018-05-27T18:18:06.245Z,99783.30
2018-05-27T18:20:33.699Z,99783.64
2018-05-27T18:23:01.200Z,99784.49
2018-05-27T18:25:28.723Z,99777.91
2018-05-27T18:27:56.311Z,99770.17
2018-05-27T18:30:23.796Z,99777.97
2018-05-27T18:32:51.338Z,99777.06
2018-05-27T18:35:18.846Z,99782.31
2018-05-27T18:37:46.467Z,99782.66
2018-05-27T18:40:13.979Z,99788.66
2018-05-27T18:42:41.530Z,99794.14
2018-05-27T18:45:09.026Z,99794.69
2018-05-27T18:47:36.514Z,99798.62
2018-05-27T18:50:04.014Z,99793.19
2018-05-27T18:52:31.540Z,99794.61
2018-05-27T18:54:59.151Z,99799.84
2018-05-27T18:57:26.605Z,99809.02
2018-05-27T18:59:54.078Z,99801.45
2018-05-27T19:02:21.621Z,99810.70
2018-05-27T19:04:49.072Z,99811.58
2018-05-27T19:07:16.536Z,99814.25
2018-05-27T19:09:44.247Z,99813.78
2018-05-27T19:12:11.766Z,99814.85
2018-05-27T19:14:39.319Z,99812.38
2018-05-27T19:17:06.851Z,99805.62
2018-05-27T19:19:34.343Z,99803.87
2018-05-27T19:22:01.837Z,99802.31
2018-05-27T19:24:29.341Z,99800.80
2018-05-27T19:26:56.827Z,99804.23
2018-05-27T19:29:24.326Z,99802.93
2018-05-27T19:31:51.859Z,99799.16
2018-05-27T19:34:19.341Z,99798.14
2018-05-27T19:36:46.854Z,99793.89
2018-05-27T19:39:14.338Z,99796.02
2018-05-27T19:41:41.814Z,99796.16
2018-05-27T19:44:09.275Z,99797.05
2018-05-27T19:46:36.749Z,99797.78
2018-05-27T19:49:04.238Z,99792.81
2018-05-27T19:51:31.750Z,99789.44
2018-05-27T19:53:59.246Z,99794.83
2018-05-27T19:56:26.750Z,99798.25
2018-05-27T19:58:54.205Z,99800.85
2018-05-27T20:01:21.693Z,99804.20
2018-05-27T20:03:49.155Z,99804.89
2018-05-27T20:06:16.722Z,99801.37
2018-05-27T20:08:45.301Z,99810.98
2018-05-27T20:11:13.266Z,99804.64
2018-05-27T20:13:41.319Z,99803.92
2018-05-27T20:16:09.099Z,99811.03
2018-05-27T20:18:36.915Z,99806.03
2018-05-27T20:21:04.549Z,99809.45
2018-05-27T20:23:32.113Z,99814.94
2018-05-27T20:25:59.601Z,99809.91
2018-05-27T20:28:27.090Z,99815.42
2018-05-27T20:30:54.647Z,99819.07
2018-05-27T20:33:22.091Z,99817.73
2018-05-27T20:35:49.593Z,99820.95
2018-05-27T20:38:17.082Z,99819.44
2018-05-27T20:40:44.599Z,99820.32
2018-05-27T20:43:12.119Z,99818.90
2018-05-27T20:45:39.705Z,99833.36
2018-05-27T20:48:07.196Z,99824.45
2018-05-27T20:50:34.655Z,99825.42
2018-05-27T20:53:02.124Z,99823.41
2018-05-27T20:55:29.580Z,99827.25
2018-05-27T20:57:57.041Z,99829.59
2018-05-27T21:00:24.511Z,99829.88
2018-05-27T21:02:52.071Z,99829.42
2018-05-27T21:05:19.527Z,99838.18
2018-05-27T21:07:46.999Z,99845.45
2018-05-27T21:10:14.518Z,99842.75
2018-05-27T21:12:42.110Z,99841.16
2018-05-27T21:15:09.582Z,99850.02
2018-05-27T21:17:37.099Z,99845.98
2018-05-27T21:20:04.651Z,99847.20
2018-05-27T21:22:32.216Z,99853.67
2018-05-27T21:24:59.667Z,99852.08
2018-05-27T21:27:27.254Z,99846.13
2018-05-27T21:29:54.747Z,99855.53
2018-05-27T21:32:23.298Z,99850.26
2018-05-27T21:34:50.796Z,99849.55
2018-05-27T21:37:18.342Z,99848.80
2018-05-27T21:39:45.864Z,99851.66
2018-05-27T21:42:13.321Z,99858.03
2018-05-27T21:44:40.891Z,99845.61
2018-05-27T21:47:08.391Z,99848.07
2018-05-27T21:49:35.857Z,99849.95
2018-05-27T21:52:04.752Z,99844.66
2018-05-27T21:54:33.880Z,99849.95
2018-05-27T21:57:01.478Z,99849.69
2018-05-27T21:59:28.943Z,99840.32
2018-05-27T22:01:56.463Z,99836.25
2018-05-27T22:04:23.934Z,99834.02
2018-05-27T22:06:51.462Z,99838.15
2018-05-27T22:09:18.930Z,99825.27
2018-05-27T22:11:46.408Z,99822.52
2018-05-27T22:14:13.976Z,99826.91
2018-05-27T22:16:41.489Z,99825.62
2018-05-27T22:19:10.307Z,99829.25
2018-05-27T22:21:43.768Z,99824.75
2018-05-27T22:24:12.207Z,99826.30
2018-05-27T22:26:40.318Z,99825.00
2018-05-27T22:29:07.837Z,99819.08
2018-05-27T22:31:35.309Z,99820.38
2018-05-27T22:34:02.836Z,99821.11
2018-05-27T22:36:30.315Z,99825.39
2018-05-27T22:38:57.795Z,99828.51
2018-05-27T22:41:25.363Z,99825.13
2018-05-27T22:43:53.724Z,99831.53
2018-05-27T22:46:21.246Z,99829.84
2018-05-27T22:48:48.749Z,99829.52
2018-05-27T22:51:16.260Z,99831.11
2018-05-27T22:53:43.729Z,99832.41
2018-05-27T22:56:11.294Z,99818.08
2018-05-27T22:58:38.801Z,99819.84
2018-05-27T23:01:06.454Z,99818.52
2018-05-27T23:03:33.933Z,99818.06
2018-05-27T23:06:01.443Z,99821.02
2018-05-27T23:08:28.942Z,99818.63
2018-05-27T23:10:56.421Z,99822.71
2018-05-27T23:13:23.902Z,99815.95
2018-05-27T23:15:51.392Z,99820.97
2018-05-27T23:18:19.725Z,99827.38
2018-05-27T23:20:47.195Z,99826.17
2018-05-27T23:23:14.667Z,99828.41
2018-05-27T23:25:42.146Z,99830.97
2018-05-27T23:28:10.467Z,99822.69
2018-05-27T23:30:38.011Z,99818.28
2018-05-27T23:33:05.565Z,99816.05
2018-05-27T23:35:33.081Z,99813.45
2018-05-27T23:38:00.639Z,99810.49
2018-05-27T23:40:28.187Z,99813.18
2018-05-27T23:42:55.718Z,99816.23
2018-05-27T23:45:23.241Z,99814.51
2018-05-27T23:47:50.726Z,99820.24
2018-05-27T23:50:18.226Z,99813.68
2018-05-27T23:52:45.813Z,99824.84
2018-05-27T23:55:14.226Z,99826.50
2018-05-27T23:57:41.689Z,99824.47
